sensor_id;sensor_type;location;lat;lon;timestamp;P1;durP1;ratioP1;P2;durP2;ratioP2
41755;SDS011;27435;48.480;9.258;2023-03-08T00:00:05;11.57;;;5.07;;
41755;SDS011;27435;48.480;9.258;2023-03-08T00:02:36;8.40;;;3.90;;
41755;SDS011;27435;48.480;9.258;2023-03-08T00:05:03;9.10;;;4.27;;
41755;SDS011;27435;48.480;9.258;2023-03-08T00:07:29;10.33;;;4.87;;
41755;SDS011;27435;48.480;9.258;2023-03-08T00:09:55;10.57;;;4.77;;
41755;SDS011;27435;48.480;9.258;2023-03-08T00:12:20;9.00;;;4.47;;
41755;SDS011;27435;48.480;9.258;2023-03-08T00:14:47;10.00;;;4.10;;
41755;SDS011;27435;48.480;9.258;2023-03-08T00:17:13;10.27;;;4.33;;
41755;SDS011;27435;48.480;9.258;2023-03-08T00:19:39;9.60;;;4.33;;
41755;SDS011;27435;48.480;9.258;2023-03-08T00:22:04;10.43;;;4.33;;
41755;SDS011;27435;48.480;9.258;2023-03-08T00:24:30;11.70;;;5.07;;
41755;SDS011;27435;48.480;9.258;2023-03-08T00:26:56;8.00;;;3.87;;
41755;SDS011;27435;48.480;9.258;2023-03-08T00:29:21;10.17;;;4.43;;
41755;SDS011;27435;48.480;9.258;2023-03-08T00:31:47;10.10;;;4.43;;
41755;SDS011;27435;48.480;9.258;2023-03-08T00:34:13;11.63;;;5.00;;
41755;SDS011;27435;48.480;9.258;2023-03-08T00:36:38;9.47;;;4.50;;
41755;SDS011;27435;48.480;9.258;2023-03-08T00:39:04;11.63;;;4.93;;
41755;SDS011;27435;48.480;9.258;2023-03-08T00:41:30;11.37;;;4.50;;
41755;SDS011;27435;48.480;9.258;2023-03-08T00:43:55;11.80;;;4.93;;
41755;SDS011;27435;48.480;9.258;2023-03-08T00:46:21;11.60;;;4.30;;
41755;SDS011;27435;48.480;9.258;2023-03-08T00:48:46;10.80;;;5.07;;
41755;SDS011;27435;48.480;9.258;2023-03-08T00:51:13;10.77;;;4.13;;
41755;SDS011;27435;48.480;9.258;2023-03-08T00:53:39;10.30;;;4.60;;
41755;SDS011;27435;48.480;9.258;2023-03-08T00:56:05;10.67;;;5.63;;
41755;SDS011;27435;48.480;9.258;2023-03-08T00:58:31;10.43;;;5.17;;
41755;SDS011;27435;48.480;9.258;2023-03-08T01:00:57;12.80;;;5.10;;
41755;SDS011;27435;48.480;9.258;2023-03-08T01:03:24;9.77;;;4.93;;
41755;SDS011;27435;48.480;9.258;2023-03-08T01:05:51;11.80;;;4.60;;
41755;SDS011;27435;48.480;9.258;2023-03-08T01:08:19;11.53;;;5.27;;
41755;SDS011;27435;48.480;9.258;2023-03-08T01:10:55;12.67;;;4.67;;
41755;SDS011;27435;48.480;9.258;2023-03-08T01:13:23;11.87;;;5.80;;
41755;SDS011;27435;48.480;9.258;2023-03-08T01:15:50;12.03;;;5.70;;
41755;SDS011;27435;48.480;9.258;2023-03-08T01:18:16;12.10;;;5.37;;
41755;SDS011;27435;48.480;9.258;2023-03-08T01:20:41;12.83;;;5.77;;
41755;SDS011;27435;48.480;9.258;2023-03-08T01:23:07;10.83;;;4.77;;
41755;SDS011;27435;48.480;9.258;2023-03-08T01:25:33;13.20;;;5.07;;
41755;SDS011;27435;48.480;9.258;2023-03-08T01:27:59;10.63;;;4.50;;
41755;SDS011;27435;48.480;9.258;2023-03-08T01:30:25;11.80;;;4.60;;
41755;SDS011;27435;48.480;9.258;2023-03-08T01:32:51;11.90;;;5.20;;
41755;SDS011;27435;48.480;9.258;2023-03-08T01:35:16;9.37;;;5.00;;
41755;SDS011;27435;48.480;9.258;2023-03-08T01:37:42;7.97;;;4.30;;
41755;SDS011;27435;48.480;9.258;2023-03-08T01:40:08;13.90;;;5.03;;
41755;SDS011;27435;48.480;9.258;2023-03-08T01:42:36;9.57;;;4.30;;
41755;SDS011;27435;48.480;9.258;2023-03-08T01:45:03;9.90;;;4.83;;
41755;SDS011;27435;48.480;9.258;2023-03-08T01:47:31;9.90;;;4.73;;
41755;SDS011;27435;48.480;9.258;2023-03-08T01:50:03;9.27;;;4.17;;
41755;SDS011;27435;48.480;9.258;2023-03-08T01:52:45;9.37;;;4.70;;
41755;SDS011;27435;48.480;9.258;2023-03-08T01:55:16;11.40;;;4.87;;
41755;SDS011;27435;48.480;9.258;2023-03-08T01:57:45;10.97;;;4.23;;
41755;SDS011;27435;48.480;9.258;2023-03-08T02:00:18;11.43;;;4.73;;
41755;SDS011;27435;48.480;9.258;2023-03-08T02:02:49;10.13;;;4.87;;
41755;SDS011;27435;48.480;9.258;2023-03-08T02:05:36;11.70;;;5.07;;
41755;SDS011;27435;48.480;9.258;2023-03-08T02:08:04;10.27;;;4.13;;
41755;SDS011;27435;48.480;9.258;2023-03-08T02:10:30;9.33;;;4.07;;
41755;SDS011;27435;48.480;9.258;2023-03-08T02:12:56;10.93;;;4.73;;
41755;SDS011;27435;48.480;9.258;2023-03-08T02:15:21;12.03;;;4.90;;
41755;SDS011;27435;48.480;9.258;2023-03-08T02:17:47;11.83;;;4.73;;
41755;SDS011;27435;48.480;9.258;2023-03-08T02:20:23;9.97;;;4.53;;
41755;SDS011;27435;48.480;9.258;2023-03-08T02:23:07;12.03;;;5.10;;
41755;SDS011;27435;48.480;9.258;2023-03-08T02:25:34;11.17;;;4.57;;
41755;SDS011;27435;48.480;9.258;2023-03-08T02:27:59;8.90;;;4.07;;
41755;SDS011;27435;48.480;9.258;2023-03-08T02:30:28;11.60;;;4.70;;
41755;SDS011;27435;48.480;9.258;2023-03-08T02:32:56;11.83;;;5.23;;
41755;SDS011;27435;48.480;9.258;2023-03-08T02:35:21;9.40;;;3.87;;
41755;SDS011;27435;48.480;9.258;2023-03-08T02:37:47;11.43;;;5.43;;
41755;SDS011;27435;48.480;9.258;2023-03-08T02:40:13;8.97;;;4.27;;
41755;SDS011;27435;48.480;9.258;2023-03-08T02:42:39;10.40;;;4.13;;
41755;SDS011;27435;48.480;9.258;2023-03-08T02:45:05;10.57;;;4.90;;
41755;SDS011;27435;48.480;9.258;2023-03-08T02:47:31;10.43;;;4.20;;
41755;SDS011;27435;48.480;9.258;2023-03-08T02:49:57;10.00;;;4.80;;
41755;SDS011;27435;48.480;9.258;2023-03-08T02:52:22;10.00;;;4.37;;
41755;SDS011;27435;48.480;9.258;2023-03-08T02:54:48;16.93;;;5.20;;
41755;SDS011;27435;48.480;9.258;2023-03-08T02:57:14;11.67;;;4.17;;
41755;SDS011;27435;48.480;9.258;2023-03-08T02:59:40;11.30;;;5.33;;
41755;SDS011;27435;48.480;9.258;2023-03-08T03:02:05;10.10;;;4.60;;
41755;SDS011;27435;48.480;9.258;2023-03-08T03:04:31;13.73;;;5.03;;
41755;SDS011;27435;48.480;9.258;2023-03-08T03:06:58;10.30;;;5.37;;
41755;SDS011;27435;48.480;9.258;2023-03-08T03:09:24;10.63;;;4.90;;
41755;SDS011;27435;48.480;9.258;2023-03-08T03:11:50;10.60;;;4.70;;
41755;SDS011;27435;48.480;9.258;2023-03-08T03:14:16;11.17;;;4.60;;
41755;SDS011;27435;48.480;9.258;2023-03-08T03:16:42;12.83;;;4.80;;
41755;SDS011;27435;48.480;9.258;2023-03-08T03:19:07;12.80;;;5.50;;
41755;SDS011;27435;48.480;9.258;2023-03-08T03:21:33;12.47;;;4.90;;
41755;SDS011;27435;48.480;9.258;2023-03-08T03:23:59;10.23;;;4.67;;
41755;SDS011;27435;48.480;9.258;2023-03-08T03:26:25;10.37;;;4.83;;
41755;SDS011;27435;48.480;9.258;2023-03-08T03:28:51;10.83;;;5.33;;
41755;SDS011;27435;48.480;9.258;2023-03-08T03:31:20;11.47;;;5.57;;
41755;SDS011;27435;48.480;9.258;2023-03-08T03:33:47;12.10;;;5.60;;
41755;SDS011;27435;48.480;9.258;2023-03-08T03:36:14;13.63;;;5.33;;
41755;SDS011;27435;48.480;9.258;2023-03-08T03:38:42;11.47;;;5.07;;
41755;SDS011;27435;48.480;9.258;2023-03-08T03:41:09;12.10;;;5.00;;
41755;SDS011;27435;48.480;9.258;2023-03-08T03:43:38;11.20;;;5.10;;
41755;SDS011;27435;48.480;9.258;2023-03-08T03:46:08;12.30;;;5.13;;
41755;SDS011;27435;48.480;9.258;2023-03-08T03:48:36;14.03;;;5.83;;
41755;SDS011;27435;48.480;9.258;2023-03-08T03:51:03;11.97;;;5.27;;
41755;SDS011;27435;48.480;9.258;2023-03-08T03:53:32;12.20;;;5.20;;
41755;SDS011;27435;48.480;9.258;2023-03-08T03:56:06;12.90;;;5.70;;
41755;SDS011;27435;48.480;9.258;2023-03-08T03:58:39;12.70;;;5.40;;
41755;SDS011;27435;48.480;9.258;2023-03-08T04:01:08;12.13;;;5.13;;
41755;SDS011;27435;48.480;9.258;2023-03-08T04:03:36;15.80;;;5.53;;
41755;SDS011;27435;48.480;9.258;2023-03-08T04:06:06;12.73;;;6.00;;
41755;SDS011;27435;48.480;9.258;2023-03-08T04:08:36;9.60;;;5.50;;
41755;SDS011;27435;48.480;9.258;2023-03-08T04:11:09;18.13;;;5.90;;
41755;SDS011;27435;48.480;9.258;2023-03-08T04:13:36;15.40;;;5.43;;
41755;SDS011;27435;48.480;9.258;2023-03-08T04:16:12;9.93;;;5.10;;
41755;SDS011;27435;48.480;9.258;2023-03-08T04:18:40;10.90;;;5.60;;
41755;SDS011;27435;48.480;9.258;2023-03-08T04:21:06;14.67;;;5.67;;
41755;SDS011;27435;48.480;9.258;2023-03-08T04:23:32;12.73;;;6.10;;
41755;SDS011;27435;48.480;9.258;2023-03-08T04:26:07;14.70;;;6.18;;
41755;SDS011;27435;48.480;9.258;2023-03-08T04:28:33;13.53;;;6.57;;
41755;SDS011;27435;48.480;9.258;2023-03-08T04:30:59;20.20;;;6.93;;
41755;SDS011;27435;48.480;9.258;2023-03-08T04:33:34;16.50;;;6.63;;
41755;SDS011;27435;48.480;9.258;2023-03-08T04:36:00;15.13;;;6.97;;
41755;SDS011;27435;48.480;9.258;2023-03-08T04:38:25;17.33;;;7.63;;
41755;SDS011;27435;48.480;9.258;2023-03-08T04:40:51;12.53;;;6.20;;
41755;SDS011;27435;48.480;9.258;2023-03-08T04:43:26;12.90;;;6.50;;
41755;SDS011;27435;48.480;9.258;2023-03-08T04:45:52;17.40;;;7.20;;
41755;SDS011;27435;48.480;9.258;2023-03-08T04:48:18;13.20;;;6.70;;
41755;SDS011;27435;48.480;9.258;2023-03-08T04:50:44;17.87;;;7.17;;
41755;SDS011;27435;48.480;9.258;2023-03-08T04:53:17;17.20;;;8.27;;
41755;SDS011;27435;48.480;9.258;2023-03-08T04:55:42;15.00;;;7.77;;
41755;SDS011;27435;48.480;9.258;2023-03-08T04:58:08;19.50;;;8.07;;
41755;SDS011;27435;48.480;9.258;2023-03-08T05:00:34;20.43;;;8.70;;
41755;SDS011;27435;48.480;9.258;2023-03-08T05:02:59;16.37;;;7.43;;
41755;SDS011;27435;48.480;9.258;2023-03-08T05:05:25;16.20;;;7.37;;
41755;SDS011;27435;48.480;9.258;2023-03-08T05:07:50;16.50;;;7.70;;
41755;SDS011;27435;48.480;9.258;2023-03-08T05:10:16;20.67;;;8.07;;
41755;SDS011;27435;48.480;9.258;2023-03-08T05:12:42;17.13;;;8.13;;
41755;SDS011;27435;48.480;9.258;2023-03-08T05:15:07;17.37;;;8.97;;
41755;SDS011;27435;48.480;9.258;2023-03-08T05:17:33;16.17;;;7.90;;
41755;SDS011;27435;48.480;9.258;2023-03-08T05:19:59;17.37;;;8.37;;
41755;SDS011;27435;48.480;9.258;2023-03-08T05:22:25;16.10;;;7.93;;
41755;SDS011;27435;48.480;9.258;2023-03-08T05:24:50;22.73;;;8.17;;
41755;SDS011;27435;48.480;9.258;2023-03-08T05:27:16;19.10;;;7.90;;
41755;SDS011;27435;48.480;9.258;2023-03-08T05:29:42;20.93;;;8.30;;
41755;SDS011;27435;48.480;9.258;2023-03-08T05:32:10;18.03;;;8.17;;
41755;SDS011;27435;48.480;9.258;2023-03-08T05:34:37;17.57;;;8.20;;
41755;SDS011;27435;48.480;9.258;2023-03-08T05:37:02;19.70;;;8.27;;
41755;SDS011;27435;48.480;9.258;2023-03-08T05:39:28;19.50;;;9.43;;
41755;SDS011;27435;48.480;9.258;2023-03-08T05:41:54;19.17;;;7.97;;
41755;SDS011;27435;48.480;9.258;2023-03-08T05:44:20;17.00;;;8.50;;
41755;SDS011;27435;48.480;9.258;2023-03-08T05:46:48;21.23;;;8.50;;
41755;SDS011;27435;48.480;9.258;2023-03-08T05:49:14;20.53;;;9.77;;
41755;SDS011;27435;48.480;9.258;2023-03-08T05:51:40;21.30;;;8.90;;
41755;SDS011;27435;48.480;9.258;2023-03-08T05:54:05;18.83;;;8.20;;
41755;SDS011;27435;48.480;9.258;2023-03-08T05:56:31;18.90;;;9.50;;
41755;SDS011;27435;48.480;9.258;2023-03-08T05:58:57;18.80;;;9.63;;
41755;SDS011;27435;48.480;9.258;2023-03-08T06:01:23;17.30;;;8.83;;
41755;SDS011;27435;48.480;9.258;2023-03-08T06:03:51;21.77;;;9.27;;
41755;SDS011;27435;48.480;9.258;2023-03-08T06:06:18;21.97;;;10.30;;
41755;SDS011;27435;48.480;9.258;2023-03-08T06:08:45;19.30;;;9.73;;
41755;SDS011;27435;48.480;9.258;2023-03-08T06:11:11;19.73;;;9.60;;
41755;SDS011;27435;48.480;9.258;2023-03-08T06:13:37;26.47;;;9.70;;
41755;SDS011;27435;48.480;9.258;2023-03-08T06:16:03;19.80;;;9.50;;
41755;SDS011;27435;48.480;9.258;2023-03-08T06:18:30;20.43;;;10.17;;
41755;SDS011;27435;48.480;9.258;2023-03-08T06:20:57;20.77;;;10.07;;
41755;SDS011;27435;48.480;9.258;2023-03-08T06:23:25;22.93;;;10.30;;
41755;SDS011;27435;48.480;9.258;2023-03-08T06:25:52;20.47;;;9.97;;
41755;SDS011;27435;48.480;9.258;2023-03-08T06:28:18;19.70;;;10.50;;
41755;SDS011;27435;48.480;9.258;2023-03-08T06:30:45;20.40;;;9.60;;
41755;SDS011;27435;48.480;9.258;2023-03-08T06:33:14;24.63;;;11.23;;
41755;SDS011;27435;48.480;9.258;2023-03-08T06:35:54;26.43;;;10.63;;
41755;SDS011;27435;48.480;9.258;2023-03-08T06:38:40;20.98;;;9.80;;
41755;SDS011;27435;48.480;9.258;2023-03-08T06:41:06;20.27;;;9.27;;
41755;SDS011;27435;48.480;9.258;2023-03-08T06:43:33;23.20;;;10.00;;
41755;SDS011;27435;48.480;9.258;2023-03-08T06:46:06;20.73;;;9.83;;
41755;SDS011;27435;48.480;9.258;2023-03-08T06:48:37;19.97;;;10.03;;
41755;SDS011;27435;48.480;9.258;2023-03-08T06:51:03;20.80;;;10.77;;
41755;SDS011;27435;48.480;9.258;2023-03-08T06:53:29;26.37;;;10.33;;
41755;SDS011;27435;48.480;9.258;2023-03-08T06:55:55;21.37;;;10.23;;
41755;SDS011;27435;48.480;9.258;2023-03-08T06:58:21;23.57;;;9.97;;
41755;SDS011;27435;48.480;9.258;2023-03-08T07:00:47;19.93;;;9.90;;
41755;SDS011;27435;48.480;9.258;2023-03-08T07:03:12;21.63;;;11.17;;
41755;SDS011;27435;48.480;9.258;2023-03-08T07:05:39;21.70;;;10.07;;
41755;SDS011;27435;48.480;9.258;2023-03-08T07:08:04;23.90;;;10.70;;
41755;SDS011;27435;48.480;9.258;2023-03-08T07:10:31;20.77;;;9.63;;
41755;SDS011;27435;48.480;9.258;2023-03-08T07:12:58;20.47;;;9.43;;
41755;SDS011;27435;48.480;9.258;2023-03-08T07:15:24;23.10;;;11.47;;
41755;SDS011;27435;48.480;9.258;2023-03-08T07:17:50;18.53;;;10.13;;
41755;SDS011;27435;48.480;9.258;2023-03-08T07:20:19;22.80;;;10.30;;
41755;SDS011;27435;48.480;9.258;2023-03-08T07:22:46;21.90;;;9.77;;
41755;SDS011;27435;48.480;9.258;2023-03-08T07:25:12;18.77;;;9.50;;
41755;SDS011;27435;48.480;9.258;2023-03-08T07:27:39;19.10;;;9.43;;
41755;SDS011;27435;48.480;9.258;2023-03-08T07:30:05;17.20;;;9.50;;
41755;SDS011;27435;48.480;9.258;2023-03-08T07:32:35;21.00;;;9.73;;
41755;SDS011;27435;48.480;9.258;2023-03-08T07:35:04;17.97;;;9.17;;
41755;SDS011;27435;48.480;9.258;2023-03-08T07:37:31;21.00;;;9.53;;
41755;SDS011;27435;48.480;9.258;2023-03-08T07:39:56;17.33;;;9.10;;
41755;SDS011;27435;48.480;9.258;2023-03-08T07:42:22;18.47;;;8.93;;
41755;SDS011;27435;48.480;9.258;2023-03-08T07:44:48;18.40;;;9.93;;
41755;SDS011;27435;48.480;9.258;2023-03-08T07:47:13;21.23;;;8.40;;
41755;SDS011;27435;48.480;9.258;2023-03-08T07:49:39;22.57;;;9.83;;
41755;SDS011;27435;48.480;9.258;2023-03-08T07:52:04;23.57;;;9.30;;
41755;SDS011;27435;48.480;9.258;2023-03-08T07:54:30;19.23;;;9.70;;
41755;SDS011;27435;48.480;9.258;2023-03-08T07:56:56;17.30;;;9.60;;
41755;SDS011;27435;48.480;9.258;2023-03-08T07:59:22;17.67;;;9.30;;
41755;SDS011;27435;48.480;9.258;2023-03-08T08:01:48;18.03;;;8.97;;
41755;SDS011;27435;48.480;9.258;2023-03-08T08:04:14;18.03;;;8.97;;
41755;SDS011;27435;48.480;9.258;2023-03-08T08:06:40;21.30;;;9.27;;
41755;SDS011;27435;48.480;9.258;2023-03-08T08:09:07;16.83;;;8.17;;
41755;SDS011;27435;48.480;9.258;2023-03-08T08:11:33;13.43;;;7.57;;
41755;SDS011;27435;48.480;9.258;2023-03-08T08:13:59;14.90;;;7.60;;
41755;SDS011;27435;48.480;9.258;2023-03-08T08:16:25;17.70;;;8.33;;
41755;SDS011;27435;48.480;9.258;2023-03-08T08:18:52;16.83;;;8.00;;
41755;SDS011;27435;48.480;9.258;2023-03-08T08:21:18;14.63;;;7.97;;
41755;SDS011;27435;48.480;9.258;2023-03-08T08:23:44;16.47;;;7.53;;
41755;SDS011;27435;48.480;9.258;2023-03-08T08:26:17;14.03;;;8.27;;
41755;SDS011;27435;48.480;9.258;2023-03-08T08:28:45;21.73;;;6.97;;
41755;SDS011;27435;48.480;9.258;2023-03-08T08:31:14;17.07;;;7.07;;
41755;SDS011;27435;48.480;9.258;2023-03-08T08:33:42;14.30;;;6.93;;
41755;SDS011;27435;48.480;9.258;2023-03-08T08:36:08;13.77;;;7.53;;
41755;SDS011;27435;48.480;9.258;2023-03-08T08:38:37;16.07;;;7.50;;
41755;SDS011;27435;48.480;9.258;2023-03-08T08:41:04;14.20;;;7.00;;
41755;SDS011;27435;48.480;9.258;2023-03-08T08:43:31;14.43;;;6.83;;
41755;SDS011;27435;48.480;9.258;2023-03-08T08:45:58;13.20;;;7.03;;
41755;SDS011;27435;48.480;9.258;2023-03-08T08:48:24;14.97;;;6.73;;
41755;SDS011;27435;48.480;9.258;2023-03-08T08:50:50;12.33;;;6.87;;
41755;SDS011;27435;48.480;9.258;2023-03-08T08:53:18;9.07;;;5.53;;
41755;SDS011;27435;48.480;9.258;2023-03-08T08:55:44;14.07;;;6.40;;
41755;SDS011;27435;48.480;9.258;2023-03-08T08:58:10;13.83;;;5.97;;
41755;SDS011;27435;48.480;9.258;2023-03-08T09:00:36;11.23;;;5.57;;
41755;SDS011;27435;48.480;9.258;2023-03-08T09:03:02;9.97;;;5.70;;
41755;SDS011;27435;48.480;9.258;2023-03-08T09:05:29;9.20;;;5.60;;
41755;SDS011;27435;48.480;9.258;2023-03-08T09:07:56;12.60;;;6.20;;
41755;SDS011;27435;48.480;9.258;2023-03-08T09:10:23;9.77;;;6.00;;
41755;SDS011;27435;48.480;9.258;2023-03-08T09:12:50;10.30;;;5.37;;
41755;SDS011;27435;48.480;9.258;2023-03-08T09:15:16;12.93;;;5.80;;
41755;SDS011;27435;48.480;9.258;2023-03-08T09:17:42;11.93;;;5.60;;
41755;SDS011;27435;48.480;9.258;2023-03-08T09:20:08;13.67;;;5.87;;
41755;SDS011;27435;48.480;9.258;2023-03-08T09:22:35;7.50;;;4.70;;
41755;SDS011;27435;48.480;9.258;2023-03-08T09:25:01;8.77;;;4.77;;
41755;SDS011;27435;48.480;9.258;2023-03-08T09:27:26;9.30;;;4.73;;
41755;SDS011;27435;48.480;9.258;2023-03-08T09:29:52;9.00;;;4.73;;
41755;SDS011;27435;48.480;9.258;2023-03-08T09:32:18;8.97;;;5.37;;
41755;SDS011;27435;48.480;9.258;2023-03-08T09:34:43;8.83;;;4.90;;
41755;SDS011;27435;48.480;9.258;2023-03-08T09:37:10;11.80;;;5.33;;
41755;SDS011;27435;48.480;9.258;2023-03-08T09:39:36;8.70;;;4.23;;
41755;SDS011;27435;48.480;9.258;2023-03-08T09:42:04;8.53;;;4.30;;
41755;SDS011;27435;48.480;9.258;2023-03-08T09:44:43;10.73;;;5.37;;
41755;SDS011;27435;48.480;9.258;2023-03-08T09:56:06;6.37;;;3.37;;
41755;SDS011;27435;48.480;9.258;2023-03-08T09:58:53;6.50;;;3.10;;
41755;SDS011;27435;48.480;9.258;2023-03-08T10:06:48;3.17;;;1.60;;
41755;SDS011;27435;48.480;9.258;2023-03-08T10:09:30;1.70;;;0.77;;
41755;SDS011;27435;48.480;9.258;2023-03-08T10:12:15;5.67;;;0.90;;
41755;SDS011;27435;48.480;9.258;2023-03-08T10:15:00;2.00;;;0.80;;
41755;SDS011;27435;48.480;9.258;2023-03-08T10:17:49;2.30;;;1.00;;
41755;SDS011;27435;48.480;9.258;2023-03-08T10:20:23;1.53;;;0.70;;
41755;SDS011;27435;48.480;9.258;2023-03-08T10:25:26;2.40;;;0.70;;
41755;SDS011;27435;48.480;9.258;2023-03-08T10:27:56;2.57;;;0.53;;
41755;SDS011;27435;48.480;9.258;2023-03-08T10:30:25;10.97;;;5.30;;
41755;SDS011;27435;48.480;9.258;2023-03-08T10:32:57;5.73;;;1.10;;
41755;SDS011;27435;48.480;9.258;2023-03-08T10:35:32;2.07;;;0.90;;
41755;SDS011;27435;48.480;9.258;2023-03-08T10:38:16;1.97;;;0.93;;
41755;SDS011;27435;48.480;9.258;2023-03-08T10:40:42;2.70;;;0.87;;
41755;SDS011;27435;48.480;9.258;2023-03-08T10:43:12;3.77;;;1.27;;
41755;SDS011;27435;48.480;9.258;2023-03-08T10:46:12;6.50;;;2.77;;
41755;SDS011;27435;48.480;9.258;2023-03-08T10:48:40;1.73;;;0.50;;
41755;SDS011;27435;48.480;9.258;2023-03-08T10:51:14;1.60;;;0.60;;
41755;SDS011;27435;48.480;9.258;2023-03-08T10:53:55;1.70;;;0.50;;
41755;SDS011;27435;48.480;9.258;2023-03-08T10:57:10;2.67;;;0.85;;
41755;SDS011;27435;48.480;9.258;2023-03-08T10:59:28;1.43;;;0.80;;
41755;SDS011;27435;48.480;9.258;2023-03-08T11:04:37;1.67;;;0.50;;
41755;SDS011;27435;48.480;9.258;2023-03-08T11:07:19;2.47;;;0.40;;
41755;SDS011;27435;48.480;9.258;2023-03-08T11:09:48;2.53;;;0.43;;
41755;SDS011;27435;48.480;9.258;2023-03-08T11:12:21;1.00;;;0.40;;
41755;SDS011;27435;48.480;9.258;2023-03-08T11:14:48;1.30;;;0.40;;
41755;SDS011;27435;48.480;9.258;2023-03-08T11:17:20;1.10;;;0.47;;
41755;SDS011;27435;48.480;9.258;2023-03-08T11:20:03;1.10;;;0.60;;
41755;SDS011;27435;48.480;9.258;2023-03-08T11:25:27;0.83;;;0.40;;
41755;SDS011;27435;48.480;9.258;2023-03-08T11:30:58;0.90;;;0.50;;
41755;SDS011;27435;48.480;9.258;2023-03-08T11:33:36;1.23;;;0.43;;
41755;SDS011;27435;48.480;9.258;2023-03-08T11:38:35;2.07;;;0.73;;
41755;SDS011;27435;48.480;9.258;2023-03-08T11:46:29;2.03;;;0.50;;
41755;SDS011;27435;48.480;9.258;2023-03-08T11:49:32;1.73;;;0.60;;
41755;SDS011;27435;48.480;9.258;2023-03-08T11:57:34;2.10;;;0.50;;
41755;SDS011;27435;48.480;9.258;2023-03-08T12:00:10;1.07;;;0.40;;
41755;SDS011;27435;48.480;9.258;2023-03-08T12:02:59;3.00;;;0.57;;
41755;SDS011;27435;48.480;9.258;2023-03-08T12:05:49;4.93;;;0.70;;
41755;SDS011;27435;48.480;9.258;2023-03-08T12:08:24;3.03;;;0.70;;
41755;SDS011;27435;48.480;9.258;2023-03-08T12:10:54;2.70;;;0.30;;
41755;SDS011;27435;48.480;9.258;2023-03-08T12:22:00;1.33;;;0.70;;
41755;SDS011;27435;48.480;9.258;2023-03-08T12:27:42;2.27;;;0.47;;
41755;SDS011;27435;48.480;9.258;2023-03-08T12:33:18;2.03;;;0.60;;
41755;SDS011;27435;48.480;9.258;2023-03-08T12:45:47;1.13;;;0.35;;
41755;SDS011;27435;48.480;9.258;2023-03-08T12:48:25;0.80;;;0.50;;
41755;SDS011;27435;48.480;9.258;2023-03-08T12:50:58;0.43;;;0.23;;
41755;SDS011;27435;48.480;9.258;2023-03-08T12:56:17;1.70;;;0.40;;
41755;SDS011;27435;48.480;9.258;2023-03-08T13:01:38;1.23;;;0.40;;
41755;SDS011;27435;48.480;9.258;2023-03-08T13:04:59;2.13;;;0.60;;
41755;SDS011;27435;48.480;9.258;2023-03-08T13:07:11;3.50;;;0.40;;
41755;SDS011;27435;48.480;9.258;2023-03-08T13:15:24;4.43;;;0.30;;
41755;SDS011;27435;48.480;9.258;2023-03-08T13:17:52;0.60;;;0.30;;
41755;SDS011;27435;48.480;9.258;2023-03-08T13:28:23;0.30;;;0.20;;
41755;SDS011;27435;48.480;9.258;2023-03-08T13:30:57;1.17;;;0.40;;
41755;SDS011;27435;48.480;9.258;2023-03-08T13:33:26;1.35;;;0.47;;
41755;SDS011;27435;48.480;9.258;2023-03-08T13:35:57;1.17;;;0.50;;
41755;SDS011;27435;48.480;9.258;2023-03-08T13:38:24;0.50;;;0.30;;
41755;SDS011;27435;48.480;9.258;2023-03-08T13:40:56;4.67;;;0.97;;
41755;SDS011;27435;48.480;9.258;2023-03-08T13:43:23;0.57;;;0.20;;
41755;SDS011;27435;48.480;9.258;2023-03-08T13:45:54;1.30;;;0.50;;
41755;SDS011;27435;48.480;9.258;2023-03-08T13:48:34;1.57;;;0.50;;
41755;SDS011;27435;48.480;9.258;2023-03-08T13:51:01;1.70;;;0.60;;
41755;SDS011;27435;48.480;9.258;2023-03-08T13:53:28;1.00;;;0.50;;
41755;SDS011;27435;48.480;9.258;2023-03-08T13:55:57;1.40;;;0.50;;
41755;SDS011;27435;48.480;9.258;2023-03-08T14:01:02;1.33;;;0.60;;
41755;SDS011;27435;48.480;9.258;2023-03-08T14:03:35;2.20;;;0.50;;
41755;SDS011;27435;48.480;9.258;2023-03-08T14:06:02;2.03;;;1.00;;
41755;SDS011;27435;48.480;9.258;2023-03-08T14:08:28;1.23;;;0.50;;
41755;SDS011;27435;48.480;9.258;2023-03-08T14:13:27;4.67;;;0.40;;
41755;SDS011;27435;48.480;9.258;2023-03-08T14:15:57;2.00;;;0.60;;
41755;SDS011;27435;48.480;9.258;2023-03-08T14:18:28;1.40;;;0.60;;
41755;SDS011;27435;48.480;9.258;2023-03-08T14:23:49;1.40;;;0.50;;
41755;SDS011;27435;48.480;9.258;2023-03-08T14:29:18;0.70;;;0.30;;
41755;SDS011;27435;48.480;9.258;2023-03-08T14:34:24;1.63;;;0.50;;
41755;SDS011;27435;48.480;9.258;2023-03-08T14:36:56;1.27;;;0.50;;
41755;SDS011;27435;48.480;9.258;2023-03-08T14:39:39;1.60;;;0.50;;
41755;SDS011;27435;48.480;9.258;2023-03-08T14:44:41;1.00;;;0.30;;
41755;SDS011;27435;48.480;9.258;2023-03-08T14:47:08;1.17;;;0.40;;
41755;SDS011;27435;48.480;9.258;2023-03-08T14:52:33;1.23;;;0.30;;
41755;SDS011;27435;48.480;9.258;2023-03-08T14:55:00;1.80;;;0.60;;
41755;SDS011;27435;48.480;9.258;2023-03-08T14:57:43;1.55;;;0.40;;
41755;SDS011;27435;48.480;9.258;2023-03-08T15:00:10;3.65;;;0.90;;
41755;SDS011;27435;48.480;9.258;2023-03-08T15:02:40;1.17;;;0.60;;
41755;SDS011;27435;48.480;9.258;2023-03-08T15:05:16;2.13;;;0.80;;
41755;SDS011;27435;48.480;9.258;2023-03-08T15:07:44;1.75;;;0.80;;
41755;SDS011;27435;48.480;9.258;2023-03-08T15:10:16;1.27;;;0.50;;
41755;SDS011;27435;48.480;9.258;2023-03-08T15:15:23;2.45;;;1.23;;
41755;SDS011;27435;48.480;9.258;2023-03-08T15:17:49;2.15;;;0.40;;
41755;SDS011;27435;48.480;9.258;2023-03-08T15:20:17;2.03;;;0.80;;
41755;SDS011;27435;48.480;9.258;2023-03-08T15:22:45;2.08;;;0.40;;
41755;SDS011;27435;48.480;9.258;2023-03-08T15:25:17;2.22;;;0.60;;
41755;SDS011;27435;48.480;9.258;2023-03-08T15:27:47;1.90;;;0.95;;
41755;SDS011;27435;48.480;9.258;2023-03-08T15:30:19;1.73;;;0.88;;
41755;SDS011;27435;48.480;9.258;2023-03-08T15:32:47;2.17;;;0.97;;
41755;SDS011;27435;48.480;9.258;2023-03-08T15:35:13;4.03;;;1.73;;
41755;SDS011;27435;48.480;9.258;2023-03-08T15:37:39;1.50;;;0.60;;
41755;SDS011;27435;48.480;9.258;2023-03-08T15:40:05;1.40;;;0.53;;
41755;SDS011;27435;48.480;9.258;2023-03-08T15:42:35;2.13;;;0.80;;
41755;SDS011;27435;48.480;9.258;2023-03-08T15:45:01;1.30;;;0.60;;
41755;SDS011;27435;48.480;9.258;2023-03-08T15:47:26;1.87;;;0.40;;
41755;SDS011;27435;48.480;9.258;2023-03-08T15:49:52;1.13;;;0.50;;
41755;SDS011;27435;48.480;9.258;2023-03-08T15:52:18;2.27;;;0.80;;
41755;SDS011;27435;48.480;9.258;2023-03-08T15:54:43;2.17;;;0.87;;
41755;SDS011;27435;48.480;9.258;2023-03-08T15:57:14;1.80;;;0.60;;
41755;SDS011;27435;48.480;9.258;2023-03-08T15:59:40;4.03;;;0.60;;
41755;SDS011;27435;48.480;9.258;2023-03-08T16:02:07;0.57;;;0.30;;
41755;SDS011;27435;48.480;9.258;2023-03-08T16:04:40;1.00;;;0.37;;
41755;SDS011;27435;48.480;9.258;2023-03-08T16:07:09;2.70;;;0.53;;
41755;SDS011;27435;48.480;9.258;2023-03-08T16:09:37;1.40;;;0.60;;
41755;SDS011;27435;48.480;9.258;2023-03-08T16:12:03;1.57;;;0.60;;
41755;SDS011;27435;48.480;9.258;2023-03-08T16:14:28;2.60;;;0.83;;
41755;SDS011;27435;48.480;9.258;2023-03-08T16:16:54;0.43;;;0.23;;
41755;SDS011;27435;48.480;9.258;2023-03-08T16:19:20;2.40;;;1.17;;
41755;SDS011;27435;48.480;9.258;2023-03-08T16:21:45;5.33;;;1.73;;
41755;SDS011;27435;48.480;9.258;2023-03-08T16:27:33;1.13;;;0.63;;
41755;SDS011;27435;48.480;9.258;2023-03-08T16:29:59;1.30;;;0.47;;
41755;SDS011;27435;48.480;9.258;2023-03-08T16:32:26;1.20;;;0.60;;
41755;SDS011;27435;48.480;9.258;2023-03-08T16:34:55;1.70;;;0.77;;